createdAt,value
2023-05-13T00:00:03.950Z,9.71
2023-05-13T00:02:34.923Z,9.68
2023-05-13T00:05:08.999Z,9.64
2023-05-13T00:07:45.319Z,9.60
2023-05-13T00:10:16.564Z,9.58
2023-05-13T00:12:47.182Z,9.54
2023-05-13T00:15:17.804Z,9.52
2023-05-13T00:17:51.153Z,9.50
2023-05-13T00:20:22.202Z,9.46
2023-05-13T00:22:52.859Z,9.41
2023-05-13T00:25:34.525Z,9.37
2023-05-13T00:28:25.183Z,9.34
2023-05-13T00:30:58.208Z,9.33
2023-05-13T00:33:31.125Z,9.31
2023-05-13T00:36:05.119Z,9.30
2023-05-13T00:38:35.580Z,9.30
2023-05-13T00:41:07.594Z,9.30
2023-05-13T00:43:38.183Z,9.29
2023-05-13T00:46:13.657Z,9.26
2023-05-13T00:48:44.336Z,9.23
2023-05-13T00:51:35.031Z,9.18
2023-05-13T00:54:05.924Z,9.14
2023-05-13T00:56:38.432Z,9.09
2023-05-13T00:59:08.981Z,9.04
2023-05-13T01:01:50.924Z,8.98
2023-05-13T01:04:32.094Z,8.94
2023-05-13T01:07:13.126Z,8.88
2023-05-13T01:10:04.861Z,8.83
2023-05-13T01:12:38.797Z,8.78
2023-05-13T01:15:15.881Z,8.73
2023-05-13T01:18:06.775Z,8.68
2023-05-13T01:20:48.322Z,8.64
2023-05-13T01:23:21.325Z,8.59
2023-05-13T01:26:11.948Z,8.58
2023-05-13T01:28:52.761Z,8.58
2023-05-13T01:31:44.129Z,8.60
2023-05-13T01:34:16.204Z,8.60
2023-05-13T01:36:50.343Z,8.60
2023-05-13T01:39:23.677Z,8.59
2023-05-13T01:41:57.069Z,8.56
2023-05-13T01:44:28.030Z,8.54
2023-05-13T01:47:00.829Z,8.51
2023-05-13T01:49:34.377Z,8.47
2023-05-13T01:52:05.199Z,8.44
2023-05-13T01:54:36.220Z,8.43
2023-05-13T01:57:26.935Z,8.43
2023-05-13T01:59:57.553Z,8.42
2023-05-13T02:02:30.744Z,8.43
2023-05-13T02:05:05.472Z,8.46
2023-05-13T02:07:39.242Z,8.47
2023-05-13T02:10:11.176Z,8.48
2023-05-13T02:12:50.528Z,8.50
2023-05-13T02:15:31.089Z,8.52
2023-05-13T02:18:01.753Z,8.54
2023-05-13T02:20:33.652Z,8.55
2023-05-13T02:23:04.642Z,8.56
2023-05-13T02:25:38.480Z,8.60
2023-05-13T02:28:29.313Z,8.65
2023-05-13T02:30:59.885Z,8.68
2023-05-13T02:33:32.832Z,8.70
2023-05-13T02:36:03.220Z,8.73
2023-05-13T02:38:41.278Z,8.72
2023-05-13T02:41:12.769Z,8.73
2023-05-13T02:43:46.109Z,8.72
2023-05-13T02:46:16.674Z,8.71
2023-05-13T02:48:49.640Z,8.71
2023-05-13T02:51:20.133Z,8.70
2023-05-13T02:53:50.648Z,8.67
2023-05-13T02:56:21.460Z,8.66
2023-05-13T02:58:54.664Z,8.66
2023-05-13T03:01:26.638Z,8.66
2023-05-13T03:04:06.271Z,8.66
2023-05-13T03:06:36.832Z,8.67
2023-05-13T03:09:10.081Z,8.70
2023-05-13T03:11:43.025Z,8.71
2023-05-13T03:14:36.804Z,8.73
2023-05-13T03:17:10.082Z,8.73
2023-05-13T03:19:41.577Z,8.72
2023-05-13T03:22:12.240Z,8.69
2023-05-13T03:24:43.296Z,8.66
2023-05-13T03:27:14.390Z,8.61
2023-05-13T03:29:44.949Z,8.57
2023-05-13T03:32:17.908Z,8.52
2023-05-13T03:35:09.029Z,8.49
2023-05-13T03:37:43.068Z,8.47
2023-05-13T03:40:22.176Z,8.46
2023-05-13T03:43:06.970Z,8.45
2023-05-13T03:45:39.663Z,8.44
2023-05-13T03:48:12.773Z,8.42
2023-05-13T03:50:43.578Z,8.41
2023-05-13T03:53:14.378Z,8.40
2023-05-13T03:56:05.297Z,8.37
2023-05-13T03:58:35.877Z,8.34
2023-05-13T04:01:15.696Z,8.33
2023-05-13T04:03:46.412Z,8.30
2023-05-13T04:06:19.383Z,8.30
2023-05-13T04:08:53.452Z,8.31
2023-05-13T04:11:24.072Z,8.32
2023-05-13T04:13:54.681Z,8.35
2023-05-13T04:16:25.629Z,8.40
2023-05-13T04:19:06.386Z,8.46
2023-05-13T04:21:48.066Z,8.54
2023-05-13T04:24:21.587Z,8.63
2023-05-13T04:26:52.851Z,8.71
2023-05-13T04:29:26.373Z,8.79
2023-05-13T04:31:57.164Z,8.88
2023-05-13T04:34:37.773Z,8.95
2023-05-13T04:37:08.990Z,9.02
2023-05-13T04:39:41.693Z,9.08
2023-05-13T04:42:12.772Z,9.13
2023-05-13T04:44:52.527Z,9.19
2023-05-13T04:47:43.224Z,9.26
2023-05-13T04:50:17.084Z,9.32
2023-05-13T04:52:50.995Z,9.38
2023-05-13T04:55:30.201Z,9.45
2023-05-13T04:58:09.029Z,9.53
2023-05-13T05:00:39.986Z,9.59
2023-05-13T05:03:14.430Z,9.68
2023-05-13T05:05:48.236Z,9.74
2023-05-13T05:08:31.834Z,9.81
2023-05-13T05:11:03.432Z,9.86
2023-05-13T05:13:35.985Z,9.90
2023-05-13T05:16:06.887Z,9.95
2023-05-13T05:18:37.733Z,10.00
2023-05-13T05:21:11.226Z,10.04
2023-05-13T05:23:45.020Z,10.07
2023-05-13T05:26:16.217Z,10.10
2023-05-13T05:28:47.389Z,10.15
2023-05-13T05:31:19.712Z,10.19
2023-05-13T05:33:53.538Z,10.26
2023-05-13T05:36:44.266Z,10.33
2023-05-13T05:39:26.239Z,10.40
2023-05-13T05:41:56.896Z,10.50
2023-05-13T05:44:27.619Z,10.59
2023-05-13T05:47:01.370Z,10.68
2023-05-13T05:49:32.028Z,10.77
2023-05-13T05:52:05.279Z,10.86
2023-05-13T05:54:43.101Z,10.96
2023-05-13T05:57:17.864Z,11.06
2023-05-13T05:59:48.822Z,11.14
2023-05-13T06:02:26.917Z,11.23
2023-05-13T06:04:57.953Z,11.31
2023-05-13T06:07:28.518Z,11.38
2023-05-13T06:09:59.102Z,11.45
2023-05-13T06:12:33.063Z,11.52
2023-05-13T06:15:10.568Z,11.59
2023-05-13T06:17:41.385Z,11.68
2023-05-13T06:20:13.868Z,11.79
2023-05-13T06:22:44.424Z,11.91
2023-05-13T06:25:15.327Z,12.08
2023-05-13T06:27:45.912Z,12.38
2023-05-13T06:30:19.115Z,12.76
2023-05-13T06:33:00.968Z,13.16
2023-05-13T06:35:33.638Z,13.64
2023-05-13T06:38:07.053Z,14.21
2023-05-13T06:40:38.659Z,14.75
2023-05-13T06:43:08.525Z,15.02
2023-05-13T06:45:48.951Z,15.18
2023-05-13T06:48:19.977Z,15.27
2023-05-13T06:50:50.500Z,15.36
2023-05-13T06:53:20.991Z,15.45
2023-05-13T06:55:51.458Z,15.55
2023-05-13T06:58:24.884Z,15.57
2023-05-13T07:00:55.479Z,15.61
2023-05-13T07:03:26.144Z,15.63
2023-05-13T07:05:56.696Z,15.61
2023-05-13T07:08:27.129Z,15.62
2023-05-13T07:10:57.686Z,15.59
2023-05-13T07:13:29.280Z,15.58
2023-05-13T07:15:59.807Z,15.58
2023-05-13T07:18:30.675Z,15.60
2023-05-13T07:21:01.208Z,15.63
2023-05-13T07:23:32.044Z,15.64
2023-05-13T07:26:02.704Z,15.64
2023-05-13T07:28:33.473Z,15.64
2023-05-13T07:31:05.326Z,15.62
2023-05-13T07:33:36.706Z,15.57
2023-05-13T07:36:08.266Z,15.43
2023-05-13T07:38:38.813Z,15.28
2023-05-13T07:41:09.314Z,15.12
2023-05-13T07:43:40.855Z,15.01
2023-05-13T07:46:11.307Z,14.95
2023-05-13T07:48:41.818Z,14.95
2023-05-13T07:51:12.553Z,15.00
2023-05-13T07:53:43.446Z,15.12
2023-05-13T07:56:13.859Z,15.26
2023-05-13T07:58:45.976Z,15.41
2023-05-13T08:01:16.590Z,15.54
2023-05-13T08:03:47.284Z,15.64
2023-05-13T08:06:21.185Z,15.77
2023-05-13T08:08:51.816Z,15.90
2023-05-13T08:11:22.619Z,16.05
2023-05-13T08:13:53.233Z,16.23
2023-05-13T08:16:23.741Z,16.45
2023-05-13T08:18:54.369Z,16.63
2023-05-13T08:21:24.788Z,16.74
2023-05-13T08:23:55.443Z,16.83
2023-05-13T08:26:26.877Z,16.91
2023-05-13T08:28:58.014Z,16.97
2023-05-13T08:31:28.500Z,17.03
2023-05-13T08:33:59.072Z,17.05
2023-05-13T08:36:29.574Z,17.03
2023-05-13T08:39:00.014Z,17.05
2023-05-13T08:41:37.224Z,17.06
2023-05-13T08:44:21.278Z,16.95
2023-05-13T08:47:01.459Z,16.83
2023-05-13T08:49:32.040Z,16.78
2023-05-13T08:52:11.057Z,16.83
2023-05-13T08:54:51.215Z,16.91
2023-05-13T08:57:21.777Z,16.94
2023-05-13T08:59:52.290Z,16.95
2023-05-13T09:02:23.339Z,16.99
2023-05-13T09:04:56.359Z,17.01
2023-05-13T09:07:27.408Z,17.05
2023-05-13T09:09:58.204Z,17.10
2023-05-13T09:12:48.839Z,17.13
2023-05-13T09:15:21.157Z,17.18
2023-05-13T09:17:55.720Z,17.19
2023-05-13T09:20:26.797Z,17.22
2023-05-13T09:22:59.448Z,17.28
2023-05-13T09:25:31.334Z,17.34
2023-05-13T09:28:03.190Z,17.42
2023-05-13T09:30:36.344Z,17.49
2023-05-13T09:33:14.425Z,17.59
2023-05-13T09:35:49.868Z,17.74
2023-05-13T09:38:21.990Z,17.88
2023-05-13T09:40:57.112Z,18.03
2023-05-13T09:43:29.273Z,18.18
2023-05-13T09:46:03.180Z,18.40
2023-05-13T09:48:38.038Z,18.66
2023-05-13T09:51:09.590Z,18.90
2023-05-13T09:53:41.514Z,19.16
2023-05-13T09:56:12.702Z,19.36
2023-05-13T09:58:42.277Z,19.53
2023-05-13T10:01:12.850Z,19.73
2023-05-13T10:03:43.686Z,19.96
2023-05-13T10:06:14.803Z,20.15
2023-05-13T10:08:43.770Z,20.39
2023-05-13T10:11:15.898Z,20.44
2023-05-13T10:13:50.736Z,20.52
2023-05-13T10:16:21.351Z,20.71
2023-05-13T10:18:52.808Z,20.97
2023-05-13T10:21:24.026Z,21.32
2023-05-13T10:23:55.739Z,21.59
2023-05-13T10:26:27.244Z,21.76
2023-05-13T10:28:58.626Z,21.97
2023-05-13T10:31:30.625Z,21.87
2023-05-13T10:34:01.214Z,21.87
2023-05-13T10:36:55.037Z,22.04
2023-05-13T10:39:50.614Z,22.14
2023-05-13T10:42:40.467Z,22.36
2023-05-13T10:45:11.978Z,22.44
2023-05-13T10:47:42.474Z,22.59
2023-05-13T10:50:25.986Z,22.66
2023-05-13T10:52:59.996Z,22.43
2023-05-13T10:55:30.429Z,22.07
2023-05-13T10:58:15.042Z,21.94
2023-05-13T11:00:46.543Z,22.07
2023-05-13T11:03:29.484Z,22.29
2023-05-13T11:06:17.277Z,22.53
2023-05-13T11:08:49.368Z,22.83
2023-05-13T11:11:28.555Z,22.80
2023-05-13T11:14:09.666Z,22.69
2023-05-13T11:16:40.224Z,22.40
2023-05-13T11:19:22.658Z,21.99
2023-05-13T11:21:56.211Z,21.59
2023-05-13T11:24:27.399Z,21.30
2023-05-13T11:26:59.329Z,21.28
2023-05-13T11:29:35.989Z,21.45
2023-05-13T11:32:07.839Z,21.66
2023-05-13T11:34:38.814Z,21.92
2023-05-13T11:37:12.944Z,21.96
2023-05-13T11:39:43.569Z,21.95
2023-05-13T11:42:14.083Z,21.94
2023-05-13T11:44:52.178Z,21.82
2023-05-13T11:47:29.114Z,21.58
2023-05-13T11:49:59.593Z,21.41
2023-05-13T11:52:29.893Z,21.31
2023-05-13T11:55:00.297Z,21.52
2023-05-13T11:57:33.193Z,21.86
2023-05-13T12:00:05.722Z,21.94
2023-05-13T12:02:40.815Z,21.88
2023-05-13T12:05:12.728Z,21.77
2023-05-13T12:07:44.062Z,21.68
2023-05-13T12:10:14.829Z,21.81
2023-05-13T12:12:46.549Z,21.87
2023-05-13T12:15:20.476Z,22.28
2023-05-13T12:17:51.835Z,22.70
2023-05-13T12:20:23.773Z,22.89
2023-05-13T12:22:57.559Z,22.98
2023-05-13T12:25:42.143Z,23.18
2023-05-13T12:28:16.534Z,23.76
2023-05-13T12:30:53.159Z,23.99
2023-05-13T12:33:26.101Z,23.76
2023-05-13T12:36:15.298Z,23.47
2023-05-13T12:39:00.061Z,23.24
2023-05-13T12:41:32.957Z,23.12
2023-05-13T12:44:05.054Z,23.15
2023-05-13T12:46:35.897Z,23.22
2023-05-13T12:49:07.493Z,23.61
2023-05-13T12:51:37.841Z,24.20
2023-05-13T12:54:08.705Z,24.74
2023-05-13T12:56:39.978Z,25.02
2023-05-13T12:59:10.927Z,25.28
2023-05-13T13:01:43.050Z,25.60
2023-05-13T13:04:16.804Z,25.92
2023-05-13T13:06:47.427Z,25.92
2023-05-13T13:09:17.760Z,25.76
2023-05-13T13:11:48.045Z,25.52
2023-05-13T13:14:18.385Z,25.25
2023-05-13T13:16:48.909Z,24.92
2023-05-13T13:19:19.424Z,24.66
2023-05-13T13:21:49.877Z,24.50
2023-05-13T13:24:20.090Z,24.61
2023-05-13T13:26:50.525Z,24.93
2023-05-13T13:29:20.790Z,25.16
2023-05-13T13:31:52.104Z,25.06
2023-05-13T13:34:22.530Z,25.16
2023-05-13T13:36:52.838Z,25.39
2023-05-13T13:39:23.190Z,25.29
2023-05-13T13:41:53.459Z,24.99
2023-05-13T13:44:23.779Z,24.74
2023-05-13T13:46:54.186Z,24.49
2023-05-13T13:49:25.116Z,24.66
2023-05-13T13:51:56.037Z,25.02
2023-05-13T13:54:26.339Z,25.37
2023-05-13T13:56:56.680Z,25.84
2023-05-13T13:59:27.179Z,26.33
2023-05-13T14:01:57.835Z,26.74
2023-05-13T14:04:30.197Z,26.97
2023-05-13T14:07:00.617Z,27.24
2023-05-13T14:09:32.665Z,27.19
2023-05-13T14:12:03.041Z,26.88
2023-05-13T14:14:33.501Z,26.34
2023-05-13T14:17:03.940Z,25.93
2023-05-13T14:19:34.287Z,25.43
2023-05-13T14:22:04.760Z,24.97
2023-05-13T14:24:35.041Z,24.55
2023-05-13T14:27:06.132Z,24.24
2023-05-13T14:29:36.598Z,23.97
2023-05-13T14:32:08.377Z,23.67
2023-05-13T14:34:38.940Z,23.26
2023-05-13T14:37:09.754Z,22.96
2023-05-13T14:39:40.199Z,22.68
2023-05-13T14:42:11.684Z,22.37
2023-05-13T14:44:42.371Z,22.08
2023-05-13T14:47:12.988Z,21.89
2023-05-13T14:49:43.280Z,21.81
2023-05-13T14:52:13.807Z,21.79
2023-05-13T14:54:44.196Z,21.74
2023-05-13T14:57:14.556Z,21.63
2023-05-13T14:59:45.040Z,21.54
2023-05-13T15:02:17.657Z,21.51
2023-05-13T15:04:48.146Z,21.53
2023-05-13T15:07:18.851Z,21.51
2023-05-13T15:09:49.283Z,21.52
2023-05-13T15:12:19.690Z,21.46
2023-05-13T15:14:55.532Z,21.44
2023-05-13T15:17:26.059Z,21.45
2023-05-13T15:19:56.367Z,21.35
2023-05-13T15:22:26.761Z,21.22
2023-05-13T15:24:57.204Z,21.08
2023-05-13T15:27:28.705Z,20.98
2023-05-13T15:29:59.070Z,20.96
2023-05-13T15:32:30.062Z,20.93
2023-05-13T15:34:59.083Z,20.92
2023-05-13T15:37:29.536Z,20.82
2023-05-13T15:39:59.894Z,20.66
2023-05-13T15:42:30.898Z,20.52
2023-05-13T15:45:01.320Z,20.31
2023-05-13T15:47:31.967Z,19.87
2023-05-13T15:50:02.590Z,19.10
2023-05-13T15:52:32.970Z,18.17
2023-05-13T15:55:03.735Z,17.21
2023-05-13T15:57:34.256Z,16.39
2023-05-13T16:00:05.214Z,15.75
2023-05-13T16:02:39.180Z,15.27
2023-05-13T16:05:15.311Z,14.72
2023-05-13T16:07:48.852Z,14.26
2023-05-13T16:10:19.390Z,13.95
2023-05-13T16:12:53.008Z,13.73
2023-05-13T16:15:23.613Z,13.59
2023-05-13T16:17:54.070Z,13.45
2023-05-13T16:20:24.788Z,13.32
2023-05-13T16:22:57.644Z,13.23
2023-05-13T16:25:28.214Z,13.16
2023-05-13T16:28:19.201Z,13.09
2023-05-13T16:30:56.259Z,13.02
2023-05-13T16:33:48.728Z,12.95
2023-05-13T16:36:29.218Z,12.93
2023-05-13T16:38:59.768Z,12.91
2023-05-13T16:41:43.064Z,12.86
2023-05-13T16:44:13.630Z,12.82
2023-05-13T16:47:04.365Z,12.76
2023-05-13T16:49:56.158Z,12.73
2023-05-13T16:52:37.836Z,12.73
2023-05-13T16:55:09.883Z,12.71
2023-05-13T16:58:01.596Z,12.70
2023-05-13T17:00:36.502Z,12.68
2023-05-13T17:03:16.420Z,12.65
2023-05-13T17:05:58.909Z,12.61
2023-05-13T17:08:33.415Z,12.58
2023-05-13T17:11:02.388Z,12.54
2023-05-13T17:13:37.696Z,12.53
2023-05-13T17:16:09.279Z,12.52
2023-05-13T17:18:59.884Z,12.52
2023-05-13T17:21:30.655Z,12.54
2023-05-13T17:24:03.919Z,12.57
2023-05-13T17:26:38.954Z,12.60
2023-05-13T17:29:10.657Z,12.64
2023-05-13T17:31:43.795Z,12.66
2023-05-13T17:34:19.588Z,12.67
2023-05-13T17:36:53.260Z,12.68
2023-05-13T17:39:24.247Z,12.68
2023-05-13T17:41:58.309Z,12.71
2023-05-13T17:44:32.071Z,12.72
2023-05-13T17:47:05.466Z,12.71
2023-05-13T17:49:40.581Z,12.70
2023-05-13T17:52:31.130Z,12.70
2023-05-13T17:55:01.541Z,12.69
2023-05-13T17:57:32.524Z,12.68
2023-05-13T18:00:06.504Z,12.67
2023-05-13T18:02:40.229Z,12.65
2023-05-13T18:05:11.857Z,12.65
2023-05-13T18:07:45.573Z,12.65
2023-05-13T18:10:16.119Z,12.67
2023-05-13T18:12:56.157Z,12.69
2023-05-13T18:15:29.892Z,12.71
2023-05-13T18:18:00.708Z,12.72
2023-05-13T18:20:31.349Z,12.74
2023-05-13T18:23:10.577Z,12.76
2023-05-13T18:25:54.700Z,12.77
2023-05-13T18:28:26.462Z,12.78
2023-05-13T18:30:59.657Z,12.78
2023-05-13T18:33:32.723Z,12.78
2023-05-13T18:36:06.590Z,12.78
2023-05-13T18:38:35.904Z,12.78
2023-05-13T18:41:07.277Z,12.77
2023-05-13T18:43:36.332Z,12.76
2023-05-13T18:46:09.469Z,12.74
2023-05-13T18:48:40.064Z,12.71
2023-05-13T18:51:11.366Z,12.68
2023-05-13T18:53:41.959Z,12.65
2023-05-13T18:56:22.755Z,12.63
2023-05-13T18:58:57.178Z,12.61
2023-05-13T19:01:46.419Z,12.59
2023-05-13T19:04:19.984Z,12.56
2023-05-13T19:06:51.261Z,12.52
2023-05-13T19:09:22.461Z,12.49
2023-05-13T19:11:55.909Z,12.47
2023-05-13T19:14:26.413Z,12.45
2023-05-13T19:17:07.714Z,12.43
2023-05-13T19:19:36.698Z,12.43
2023-05-13T19:22:20.330Z,12.43
2023-05-13T19:24:51.080Z,12.42
2023-05-13T19:27:23.956Z,12.41
2023-05-13T19:29:54.420Z,12.39
2023-05-13T19:32:28.107Z,12.38
2023-05-13T19:35:02.386Z,12.36
2023-05-13T19:37:33.025Z,12.35
2023-05-13T19:40:03.659Z,12.35
2023-05-13T19:42:36.646Z,12.36
2023-05-13T19:45:09.547Z,12.35
2023-05-13T19:47:42.430Z,12.34
2023-05-13T19:50:14.299Z,12.35
2023-05-13T19:52:55.983Z,12.36
2023-05-13T19:55:26.760Z,12.37
2023-05-13T19:57:57.218Z,12.37
2023-05-13T20:00:28.244Z,12.37
2023-05-13T20:03:01.091Z,12.37
2023-05-13T20:05:34.264Z,12.37
2023-05-13T20:08:07.677Z,12.38
2023-05-13T20:10:46.267Z,12.38
2023-05-13T20:13:16.861Z,12.38
2023-05-13T20:15:49.916Z,12.37
2023-05-13T20:18:23.551Z,12.36
2023-05-13T20:20:57.006Z,12.35
2023-05-13T20:23:27.640Z,12.33
2023-05-13T20:25:58.276Z,12.30
2023-05-13T20:28:32.139Z,12.29
2023-05-13T20:31:03.481Z,12.27
2023-05-13T20:33:34.053Z,12.25
2023-05-13T20:36:06.517Z,12.24
2023-05-13T20:38:37.286Z,12.22
2023-05-13T20:41:10.281Z,12.21
2023-05-13T20:43:40.896Z,12.20
2023-05-13T20:46:16.824Z,12.18
2023-05-13T20:48:47.907Z,12.17
2023-05-13T20:51:18.455Z,12.14
2023-05-13T20:53:51.307Z,12.12
2023-05-13T20:56:26.321Z,12.09
2023-05-13T20:59:17.055Z,12.04
2023-05-13T21:01:47.776Z,11.99
2023-05-13T21:04:22.901Z,11.94
2023-05-13T21:06:53.425Z,11.89
2023-05-13T21:09:23.840Z,11.85
2023-05-13T21:11:54.458Z,11.79
2023-05-13T21:14:27.764Z,11.71
2023-05-13T21:17:03.176Z,11.66
2023-05-13T21:19:33.664Z,11.59
2023-05-13T21:22:07.370Z,11.51
2023-05-13T21:24:37.981Z,11.44
2023-05-13T21:27:10.834Z,11.37
2023-05-13T21:29:41.354Z,11.30
2023-05-13T21:32:12.734Z,11.25
2023-05-13T21:34:41.770Z,11.18
2023-05-13T21:37:16.843Z,11.13
2023-05-13T21:39:54.367Z,11.05
2023-05-13T21:42:33.395Z,10.98
2023-05-13T21:45:04.043Z,10.92
2023-05-13T21:47:54.694Z,10.85
2023-05-13T21:50:25.394Z,10.79
2023-05-13T21:53:05.752Z,10.73
2023-05-13T21:55:38.836Z,10.67
2023-05-13T21:58:18.394Z,10.61
2023-05-13T22:00:56.621Z,10.55
2023-05-13T22:03:27.342Z,10.50
2023-05-13T22:06:00.583Z,10.45
2023-05-13T22:08:41.249Z,10.41
2023-05-13T22:11:23.360Z,10.39
2023-05-13T22:14:07.846Z,10.37
2023-05-13T22:16:38.491Z,10.33
2023-05-13T22:19:09.432Z,10.31
2023-05-13T22:21:42.282Z,10.27
2023-05-13T22:24:25.760Z,10.24
2023-05-13T22:27:08.237Z,10.21
2023-05-13T22:29:43.922Z,10.19
2023-05-13T22:32:14.612Z,10.17
2023-05-13T22:34:45.312Z,10.16
2023-05-13T22:37:26.233Z,10.15
2023-05-13T22:39:59.937Z,10.16
2023-05-13T22:42:41.615Z,10.16
2023-05-13T22:45:25.039Z,10.16
2023-05-13T22:48:00.755Z,10.15
2023-05-13T22:50:34.425Z,10.15
2023-05-13T22:53:07.900Z,10.17
2023-05-13T22:55:38.508Z,10.19
2023-05-13T22:58:09.083Z,10.22
2023-05-13T23:00:42.610Z,10.24
2023-05-13T23:03:24.305Z,10.23
2023-05-13T23:05:59.210Z,10.19
2023-05-13T23:08:32.650Z,10.15
2023-05-13T23:11:03.361Z,10.11
2023-05-13T23:13:54.024Z,10.06
2023-05-13T23:16:37.522Z,10.03
2023-05-13T23:19:10.555Z,10.01
2023-05-13T23:22:01.299Z,9.97
2023-05-13T23:24:34.545Z,9.94
2023-05-13T23:27:05.603Z,9.91
2023-05-13T23:29:36.141Z,9.89
2023-05-13T23:32:10.361Z,9.89
2023-05-13T23:34:55.087Z,9.92
2023-05-13T23:37:37.559Z,9.94
2023-05-13T23:40:28.280Z,9.94
2023-05-13T23:42:58.842Z,9.94
2023-05-13T23:45:32.036Z,9.93
2023-05-13T23:48:06.091Z,9.94
2023-05-13T23:50:38.891Z,9.93
2023-05-13T23:53:09.425Z,9.97
2023-05-13T23:55:40.188Z,10.01
2023-05-13T23:58:10.815Z,10.07
